Time;durP1;ratioP1;P1;durP2;ratioP2;P2;SDS_P1;SDS_P2;PMS_P1;PMS_P2;Temp;Humidity;BMP_temperature;BMP_pressure;BME280_temperature;BME280_humidity;BME280_pressure;Samples;Min_cycle;Max_cycle;Signal;HPM_P1;HPM_P2
2022/01/11 00:01:22;;;;;;;160.50;35.07;;;-0.80;99.90;;;;;;4899789;29;20044;-90
2022/01/11 00:03:54;;;;;;;201.20;37.13;;;-0.70;99.90;;;;;;4902869;29;20056;-90
2022/01/11 00:09:23;;;;;;;111.83;30.40;;;-1.20;99.90;;;;;;4899384;29;20052;-89
2022/01/11 00:11:50;;;;;;;145.73;32.40;;;-0.90;99.90;;;;;;4900440;29;20095;-89
2022/01/11 00:14:19;;;;;;;222.23;35.73;;;-1.60;99.90;;;;;;4899464;29;20048;-89
2022/01/11 00:16:45;;;;;;;233.90;37.30;;;-0.20;99.90;;;;;;4899442;29;20044;-89
2022/01/11 00:19:13;;;;;;;199.63;36.60;;;-1.40;99.90;;;;;;4898765;29;20036;-89
2022/01/11 00:21:45;;;;;;;195.30;33.43;;;-0.80;99.90;;;;;;4899124;29;20079;-89
2022/01/11 00:24:33;;;;;;;279.63;41.73;;;-1.20;99.90;;;;;;4898072;29;20066;-89
2022/01/11 00:27:03;;;;;;;417.23;50.43;;;-1.90;99.90;;;;;;4899433;29;20510;-89
2022/01/11 00:29:30;;;;;;;224.30;37.93;;;-0.90;99.90;;;;;;4904387;29;20076;-89
2022/01/11 00:32:00;;;;;;;300.47;43.20;;;-0.60;99.90;;;;;;4902185;29;20132;-89
2022/01/11 00:34:39;;;;;;;196.90;34.30;;;-0.10;99.90;;;;;;4903280;29;20489;-89
2022/01/11 00:37:19;;;;;;;255.83;39.13;;;-0.60;99.90;;;;;;4920064;29;20100;-89
2022/01/11 00:39:51;;;;;;;224.70;35.60;;;0.20;99.90;;;;;;4902562;29;20048;-88
2022/01/11 00:42:17;;;;;;;241.07;37.50;;;-0.80;99.90;;;;;;4902719;29;20044;-88
2022/01/11 00:44:43;;;;;;;206.80;35.30;;;-1.30;99.90;;;;;;4920303;29;20132;-89
2022/01/11 00:47:12;;;;;;;220.03;33.73;;;-0.80;99.90;;;;;;4902132;29;20135;-89
2022/01/11 00:49:47;;;;;;;188.20;33.03;;;0.10;99.90;;;;;;4903011;29;20408;-89
2022/01/11 00:52:12;;;;;;;246.37;38.03;;;0.10;99.90;;;;;;4903409;29;20080;-89
2022/01/11 00:54:38;;;;;;;360.37;43.23;;;0.10;99.90;;;;;;4902447;29;20056;-89
2022/01/11 00:57:04;;;;;;;298.40;39.60;;;-0.50;99.90;;;;;;4902992;29;20058;-89
2022/01/11 00:59:33;;;;;;;294.03;39.60;;;-1.10;99.90;;;;;;4902487;29;20048;-89
2022/01/11 01:02:02;;;;;;;249.87;33.83;;;0.00;99.90;;;;;;4901806;29;20052;-89
2022/01/11 01:04:27;;;;;;;244.50;37.40;;;-0.30;99.90;;;;;;4919108;29;20063;-88
2022/01/11 01:06:53;;;;;;;217.77;34.47;;;-1.40;99.90;;;;;;4901509;29;20138;-89
2022/01/11 01:09:36;;;;;;;143.40;31.03;;;-1.30;99.90;;;;;;4902367;29;20085;-88
2022/01/11 01:12:01;;;;;;;275.37;36.83;;;-0.40;99.90;;;;;;4919871;29;20067;-89
2022/01/11 01:14:27;;;;;;;182.80;32.90;;;-0.80;99.90;;;;;;4918015;29;20504;-88
2022/01/11 01:16:53;;;;;;;206.80;32.60;;;-1.00;99.90;;;;;;4901846;29;20044;-89
2022/01/11 01:19:19;;;;;;;217.13;36.20;;;-0.70;99.90;;;;;;4902617;29;20052;-89
2022/01/11 01:21:47;;;;;;;270.90;38.03;;;-1.50;99.90;;;;;;4901770;29;20048;-89
2022/01/11 01:24:13;;;;;;;138.67;29.57;;;-1.60;99.90;;;;;;4902395;29;20134;-89
2022/01/11 01:26:40;;;;;;;226.77;35.83;;;-1.30;99.90;;;;;;4902442;29;20044;-88
2022/01/11 01:29:21;;;;;;;241.33;35.73;;;-1.20;99.90;;;;;;4918758;29;20040;-88
2022/01/11 01:31:46;;;;;;;193.83;33.87;;;-1.10;99.90;;;;;;4902108;29;20088;-89
2022/01/11 01:34:12;;;;;;;215.00;33.17;;;-1.50;99.90;;;;;;4901554;29;20079;-88
2022/01/11 01:36:40;;;;;;;234.67;35.43;;;-1.70;99.90;;;;;;4901321;29;20135;-89
2022/01/11 01:39:06;;;;;;;189.00;31.33;;;-1.40;99.90;;;;;;4909121;29;20054;-88
2022/01/11 01:41:32;;;;;;;197.70;31.33;;;-0.90;99.90;;;;;;4901748;29;20609;-88
2022/01/11 01:44:02;;;;;;;139.87;28.90;;;-1.60;99.90;;;;;;4901065;29;20050;-88
2022/01/11 01:46:33;;;;;;;170.00;29.53;;;-1.30;99.90;;;;;;4918632;29;20044;-89
2022/01/11 01:49:00;;;;;;;223.70;32.63;;;-1.40;99.90;;;;;;4901333;29;20048;-88
2022/01/11 01:51:27;;;;;;;169.13;28.43;;;-1.60;99.90;;;;;;4901793;29;20052;-88
2022/01/11 01:53:54;;;;;;;203.37;29.87;;;-1.60;99.90;;;;;;4902091;29;20070;-89
2022/01/11 01:56:22;;;;;;;203.33;32.63;;;0.20;99.90;;;;;;4901049;29;20047;-89
2022/01/11 01:58:53;;;;;;;120.83;26.67;;;-1.60;99.90;;;;;;4901936;29;20091;-89
2022/01/11 02:01:22;;;;;;;203.53;34.27;;;-1.10;99.90;;;;;;4901556;29;20497;-89
2022/01/11 02:03:52;;;;;;;224.93;32.73;;;-1.60;99.90;;;;;;4897219;29;20060;-88
2022/01/11 02:06:24;;;;;;;275.27;39.07;;;-0.30;99.90;;;;;;4898375;29;20055;-89
2022/01/11 02:08:50;;;;;;;208.17;31.63;;;-0.70;99.90;;;;;;4898563;29;20064;-89
2022/01/11 02:11:22;;;;;;;169.20;29.37;;;-1.50;99.90;;;;;;4897391;29;20048;-88
2022/01/11 02:13:56;;;;;;;134.40;28.77;;;-1.60;99.90;;;;;;4898889;29;20063;-88
2022/01/11 02:16:34;;;;;;;120.23;27.80;;;-1.50;99.90;;;;;;4898296;29;20100;-88
2022/01/11 02:19:12;;;;;;;133.03;26.27;;;-1.60;99.90;;;;;;4897630;29;20481;-88
2022/01/11 02:21:50;;;;;;;255.27;36.53;;;-0.60;99.90;;;;;;4898099;29;20500;-88
2022/01/11 02:24:22;;;;;;;245.63;33.97;;;-1.40;99.90;;;;;;4896832;29;20060;-88
2022/01/11 02:26:57;;;;;;;131.50;28.33;;;-1.60;99.90;;;;;;4897871;29;20128;-88
2022/01/11 02:29:37;;;;;;;201.27;30.87;;;-1.70;99.90;;;;;;4897690;29;20520;-88
2022/01/11 02:32:12;;;;;;;196.17;32.27;;;-1.60;99.90;;;;;;4897504;29;20047;-88
2022/01/11 02:34:50;;;;;;;142.80;26.67;;;-1.40;99.90;;;;;;4897832;29;20405;-88
2022/01/11 02:37:25;;;;;;;108.60;25.17;;;-1.70;99.90;;;;;;4897493;29;20053;-88
2022/01/11 02:39:57;;;;;;;109.67;25.00;;;-1.70;99.90;;;;;;4897152;29;20048;-88
2022/01/11 02:42:37;;;;;;;125.70;24.87;;;-1.80;99.90;;;;;;4897556;29;20052;-88
2022/01/11 02:45:20;;;;;;;154.30;28.43;;;-1.60;99.90;;;;;;4898063;29;20524;-88
2022/01/11 02:48:01;;;;;;;124.73;23.97;;;-1.70;99.90;;;;;;4903170;29;20048;-88
2022/01/11 02:50:39;;;;;;;147.63;27.80;;;0.00;99.90;;;;;;4897277;29;20089;-87
2022/01/11 02:53:23;;;;;;;123.10;25.40;;;-1.90;99.90;;;;;;4897191;29;20489;-88
2022/01/11 02:56:08;;;;;;;185.48;29.35;;;-1.80;99.90;;;;;;4896266;29;20060;-87
2022/01/11 02:58:46;;;;;;;144.83;26.07;;;-1.00;99.90;;;;;;4897600;29;20049;-88
2022/01/11 03:01:21;;;;;;;153.10;26.30;;;-1.70;99.90;;;;;;4896298;29;20040;-87
2022/01/11 03:04:12;;;;;;;184.73;28.43;;;-1.40;99.90;;;;;;4897113;29;20165;-87
2022/01/11 03:06:37;;;;;;;140.27;28.03;;;-1.60;99.90;;;;;;4896971;29;20052;-87
2022/01/11 03:09:12;;;;;;;165.27;28.83;;;-1.70;99.90;;;;;;4897204;29;20059;-87
2022/01/11 03:11:47;;;;;;;132.37;26.20;;;-1.80;99.90;;;;;;4897403;29;20051;-87
2022/01/11 03:14:35;;;;;;;197.73;31.73;;;-1.90;99.90;;;;;;4895996;29;20044;-87
2022/01/11 03:17:10;;;;;;;121.60;25.63;;;-1.90;99.90;;;;;;4897147;29;20409;-87
2022/01/11 03:19:46;;;;;;;230.43;31.67;;;-1.80;99.90;;;;;;4897006;29;20044;-87
2022/01/11 03:22:21;;;;;;;174.67;28.40;;;-1.60;99.90;;;;;;4896074;29;20126;-87
2022/01/11 03:24:47;;;;;;;138.63;27.57;;;-1.70;99.90;;;;;;4896921;29;20048;-87
2022/01/11 03:27:12;;;;;;;186.43;30.27;;;-1.80;99.90;;;;;;4896916;29;20041;-87
2022/01/11 03:29:53;;;;;;;151.30;27.77;;;-1.80;99.90;;;;;;4896896;29;20061;-87
2022/01/11 03:32:34;;;;;;;150.03;27.47;;;-0.70;99.90;;;;;;4897034;29;20108;-87
2022/01/11 03:35:00;;;;;;;191.73;31.47;;;-1.80;99.90;;;;;;4895941;29;20754;-87
2022/01/11 03:37:25;;;;;;;161.40;29.10;;;-1.80;99.90;;;;;;4895894;29;20135;-87
2022/01/11 03:39:54;;;;;;;111.67;26.03;;;-1.80;99.90;;;;;;4896413;29;20044;-86
2022/01/11 03:42:20;;;;;;;145.90;27.87;;;-2.00;99.90;;;;;;4895939;29;20064;-87
2022/01/11 03:44:46;;;;;;;105.10;26.40;;;-1.80;99.90;;;;;;4896632;29;20048;-86
2022/01/11 03:47:24;;;;;;;130.27;26.57;;;-1.90;99.90;;;;;;4896187;29;20048;-87
2022/01/11 03:50:09;;;;;;;123.83;28.00;;;-2.80;99.90;;;;;;4895933;29;20071;-86
2022/01/11 03:52:35;;;;;;;130.67;27.00;;;-1.70;99.90;;;;;;4896759;29;20056;-86
2022/01/11 03:55:05;;;;;;;105.17;28.20;;;-2.00;99.90;;;;;;4898267;29;20152;-87
2022/01/11 03:57:41;;;;;;;127.17;27.43;;;-1.90;99.90;;;;;;4895786;29;20056;-87
2022/01/11 04:00:19;;;;;;;111.13;26.93;;;-1.90;99.90;;;;;;4896809;29;20059;-87
2022/01/11 04:02:45;;;;;;;115.03;27.57;;;-1.90;99.90;;;;;;4897145;29;20044;-86
2022/01/11 04:05:13;;;;;;;84.67;25.77;;;-1.60;99.90;;;;;;4899456;29;20488;-87
2022/01/11 04:07:38;;;;;;;106.47;27.90;;;-1.80;99.90;;;;;;4898774;29;20044;-86
2022/01/11 04:10:05;;;;;;;121.40;28.50;;;-1.80;99.90;;;;;;4899040;29;20442;-86
2022/01/11 04:12:31;;;;;;;101.63;25.07;;;-1.80;99.90;;;;;;4899286;29;20052;-86
2022/01/11 04:14:56;;;;;;;142.43;28.70;;;-1.80;99.90;;;;;;4899763;29;20501;-86
2022/01/11 04:17:22;;;;;;;129.33;30.30;;;-1.80;99.90;;;;;;4898134;29;20060;-86
2022/01/11 04:19:48;;;;;;;104.67;28.37;;;-1.80;99.90;;;;;;4898813;29;20049;-86
2022/01/11 04:22:14;;;;;;;113.13;28.10;;;-1.80;99.90;;;;;;4899150;29;20052;-86
2022/01/11 04:24:40;;;;;;;104.23;27.90;;;-1.80;99.90;;;;;;4898739;29;20062;-86
2022/01/11 04:27:05;;;;;;;123.67;31.20;;;-1.80;99.90;;;;;;4899575;29;20063;-86
2022/01/11 04:29:31;;;;;;;99.00;28.73;;;-1.70;99.90;;;;;;4898836;29;20051;-86
2022/01/11 04:31:56;;;;;;;93.27;27.60;;;-1.70;99.90;;;;;;4898989;29;20400;-86
2022/01/11 04:34:25;;;;;;;95.57;28.17;;;-1.80;99.90;;;;;;4899195;29;20047;-86
2022/01/11 04:36:51;;;;;;;139.17;31.77;;;-1.70;99.90;;;;;;4899135;29;20427;-86
2022/01/11 04:39:16;;;;;;;141.87;33.40;;;-1.70;99.90;;;;;;4898224;29;20127;-86
2022/01/11 04:41:42;;;;;;;133.97;33.20;;;-1.20;99.90;;;;;;4899271;29;20051;-86
2022/01/11 04:44:08;;;;;;;116.37;30.90;;;-1.70;99.90;;;;;;4899377;29;20540;-86
2022/01/11 04:46:34;;;;;;;112.80;31.03;;;-1.70;99.90;;;;;;4898382;29;20052;-86
2022/01/11 04:49:00;;;;;;;115.97;32.43;;;-1.70;99.90;;;;;;4898948;29;20103;-86
2022/01/11 04:51:26;;;;;;;108.97;30.10;;;-1.70;99.90;;;;;;4898476;29;20079;-86
2022/01/11 04:53:52;;;;;;;115.90;31.90;;;-1.70;99.90;;;;;;4898498;29;20040;-86
2022/01/11 04:56:19;;;;;;;125.83;32.83;;;-1.70;99.90;;;;;;4898478;29;20131;-86
2022/01/11 04:58:45;;;;;;;114.43;29.43;;;-1.70;99.90;;;;;;4899015;29;20060;-86
2022/01/11 05:01:10;;;;;;;106.33;30.73;;;-1.60;99.90;;;;;;4897533;29;20046;-86
2022/01/11 05:03:36;;;;;;;128.23;32.60;;;-1.70;99.90;;;;;;4898207;29;20064;-86
2022/01/11 05:06:04;;;;;;;112.40;31.00;;;-1.60;99.90;;;;;;4897398;29;20488;-86
2022/01/11 05:08:30;;;;;;;101.57;29.63;;;-1.70;99.90;;;;;;4898382;29;20048;-86
2022/01/11 05:10:56;;;;;;;127.97;33.00;;;-1.70;99.90;;;;;;4898067;29;20222;-86
2022/01/11 05:13:22;;;;;;;104.83;29.83;;;-1.60;99.90;;;;;;4921128;23;20087;-86
2022/01/11 05:15:48;;;;;;;121.87;32.33;;;-1.70;99.90;;;;;;4898711;29;20052;-86
2022/01/11 05:18:14;;;;;;;106.33;32.87;;;-1.70;99.90;;;;;;4899487;29;20051;-86
2022/01/11 05:20:40;;;;;;;134.10;34.37;;;-1.70;99.90;;;;;;4901877;29;20510;-85
2022/01/11 05:23:07;;;;;;;116.17;31.50;;;-1.60;99.90;;;;;;4902323;29;20043;-86
2022/01/11 05:25:33;;;;;;;121.47;34.80;;;-1.60;99.90;;;;;;4901852;29;20127;-86
2022/01/11 05:27:59;;;;;;;142.73;32.57;;;-1.60;99.90;;;;;;4901638;29;20216;-86
2022/01/11 05:30:26;;;;;;;116.07;31.93;;;-1.60;99.90;;;;;;4901854;29;20407;-86
2022/01/11 05:32:52;;;;;;;137.67;35.17;;;-1.60;99.90;;;;;;4902169;29;20048;-86
2022/01/11 05:35:19;;;;;;;102.47;31.43;;;-1.40;99.90;;;;;;4901051;29;20079;-85
2022/01/11 05:37:45;;;;;;;113.77;33.23;;;-1.50;99.90;;;;;;4902039;29;20055;-86
2022/01/11 05:40:12;;;;;;;112.33;33.50;;;-1.50;99.90;;;;;;4902282;29;20388;-85
2022/01/11 05:42:39;;;;;;;119.43;35.07;;;-1.50;99.90;;;;;;4901320;29;20048;-86
2022/01/11 05:45:07;;;;;;;114.30;35.33;;;-1.40;99.90;;;;;;4902195;29;20131;-86
2022/01/11 05:47:33;;;;;;;107.37;33.60;;;-1.50;99.90;;;;;;4901892;29;20052;-86
2022/01/11 05:50:00;;;;;;;130.50;34.40;;;-1.30;99.90;;;;;;4900944;29;20044;-86
2022/01/11 05:52:26;;;;;;;122.53;36.23;;;-1.50;99.90;;;;;;4901602;29;20055;-86
2022/01/11 05:54:52;;;;;;;159.87;38.97;;;-1.40;99.90;;;;;;4902073;29;20048;-86
2022/01/11 05:57:17;;;;;;;160.47;37.30;;;-1.40;99.90;;;;;;4900746;29;20047;-86
2022/01/11 05:59:43;;;;;;;145.60;38.03;;;-1.30;99.90;;;;;;4918106;29;20078;-86
2022/01/11 06:02:09;;;;;;;118.67;35.80;;;-1.30;99.90;;;;;;4900988;29;20055;-86
2022/01/11 06:04:34;;;;;;;136.50;39.07;;;-1.30;99.90;;;;;;4901133;29;20083;-86
2022/01/11 06:07:00;;;;;;;152.07;41.73;;;-1.30;99.90;;;;;;4901751;29;20048;-86
2022/01/11 06:09:27;;;;;;;129.40;35.23;;;-1.30;99.90;;;;;;4900441;29;20040;-86
2022/01/11 06:11:53;;;;;;;149.13;36.07;;;-1.30;99.90;;;;;;4905584;29;20056;-85
2022/01/11 06:14:20;;;;;;;131.97;34.47;;;-1.30;99.90;;;;;;4901042;29;20064;-86
2022/01/11 06:16:46;;;;;;;129.70;34.90;;;-1.30;99.90;;;;;;4901063;29;20044;-86
2022/01/11 06:19:11;;;;;;;150.97;38.07;;;-1.30;99.90;;;;;;4901124;29;20482;-85
2022/01/11 06:21:37;;;;;;;133.83;34.53;;;-1.30;99.90;;;;;;4901550;29;20138;-86
2022/01/11 06:24:03;;;;;;;139.70;35.47;;;-1.30;99.90;;;;;;4900637;29;20555;-86
2022/01/11 06:26:30;;;;;;;112.20;32.77;;;-1.30;99.90;;;;;;4901108;29;20138;-86
2022/01/11 06:28:56;;;;;;;118.03;34.10;;;-1.30;99.90;;;;;;4901407;29;20130;-86
2022/01/11 06:31:23;;;;;;;112.57;33.27;;;-1.30;99.90;;;;;;4899997;29;20456;-86
2022/01/11 06:33:48;;;;;;;123.57;35.53;;;-1.30;99.90;;;;;;4901258;29;20084;-86
2022/01/11 06:36:14;;;;;;;128.67;38.30;;;-1.30;99.90;;;;;;4900681;29;20075;-85
2022/01/11 06:38:41;;;;;;;102.23;32.40;;;-1.40;99.90;;;;;;4900389;29;20072;-86
2022/01/11 06:41:07;;;;;;;104.03;33.60;;;-1.30;99.90;;;;;;4901042;29;20054;-86
2022/01/11 06:43:33;;;;;;;100.33;34.20;;;-1.30;99.90;;;;;;4900627;29;20424;-85
2022/01/11 06:45:59;;;;;;;93.97;31.80;;;-1.30;99.90;;;;;;4900331;29;20044;-86
2022/01/11 06:48:25;;;;;;;112.20;33.30;;;-1.30;99.90;;;;;;4901072;29;20063;-85
2022/01/11 06:51:05;;;;;;;127.40;34.70;;;-1.30;99.90;;;;;;4900321;29;20056;-86
2022/01/11 06:53:39;;;;;;;105.53;33.63;;;-1.40;99.90;;;;;;4899850;29;20115;-86
2022/01/11 06:56:24;;;;;;;107.77;33.47;;;-1.00;99.90;;;;;;4900633;29;20048;-86
2022/01/11 06:59:02;;;;;;;102.93;32.90;;;-1.60;99.90;;;;;;4900227;29;20052;-86
2022/01/11 07:01:29;;;;;;;105.27;32.27;;;-1.60;99.90;;;;;;4900376;29;20136;-86
2022/01/11 07:03:54;;;;;;;121.67;33.13;;;-1.50;99.90;;;;;;4900948;29;20241;-86
2022/01/11 07:06:20;;;;;;;114.50;33.33;;;-1.30;99.90;;;;;;4899243;29;20571;-86
2022/01/11 07:08:55;;;;;;;115.83;32.77;;;-1.50;99.90;;;;;;4900765;29;20056;-86
2022/01/11 07:11:39;;;;;;;107.10;33.10;;;-1.60;99.90;;;;;;4900099;29;20055;-85
2022/01/11 07:14:16;;;;;;;104.25;33.95;;;-2.40;99.90;;;;;;4877759;29;20049;-86
2022/01/11 07:16:54;;;;;;;103.07;32.97;;;-1.50;99.90;;;;;;4879545;29;20049;-85
2022/01/11 07:19:20;;;;;;;107.23;33.53;;;1.60;99.90;;;;;;4887431;29;20077;-86
2022/01/11 07:21:52;;;;;;;103.10;33.90;;;-1.60;99.90;;;;;;4877884;29;20140;-87
2022/01/11 07:24:38;;;;;;;100.97;32.67;;;-1.70;99.90;;;;;;4878007;29;20049;-87
2022/01/11 07:27:12;;;;;;;108.73;34.53;;;-1.70;99.90;;;;;;4877995;29;20065;-87
2022/01/11 07:29:48;;;;;;;97.30;32.90;;;-1.70;99.90;;;;;;4878342;29;20051;-88
2022/01/11 07:32:16;;;;;;;102.93;32.93;;;-1.60;99.90;;;;;;4878610;29;20136;-88
2022/01/11 07:34:43;;;;;;;88.47;32.67;;;-1.50;99.90;;;;;;4933431;23;20421;-94
2022/01/11 07:37:09;;;;;;;96.43;33.47;;;-1.40;99.90;;;;;;4897220;29;20108;-88
2022/01/11 07:39:34;;;;;;;92.93;33.70;;;-1.50;99.90;;;;;;4896857;29;20164;-88
2022/01/11 07:42:00;;;;;;;84.07;32.43;;;-1.40;99.90;;;;;;4916728;23;20057;-89
2022/01/11 07:44:26;;;;;;;85.87;31.53;;;-1.00;99.90;;;;;;4897157;29;20405;-89
2022/01/11 07:46:53;;;;;;;98.97;32.93;;;-1.50;99.90;;;;;;4897529;29;20048;-88
2022/01/11 07:49:59;;;;;;;83.67;31.07;;;-1.50;99.90;;;;;;4895919;29;20420;-92
2022/01/11 07:52:25;;;;;;;89.63;32.40;;;-1.40;99.90;;;;;;4897324;29;20112;-86
2022/01/11 07:54:53;;;;;;;80.80;30.47;;;-1.50;99.90;;;;;;4890081;29;20058;-89
2022/01/11 07:57:28;;;;;;;81.50;31.03;;;-0.80;99.90;;;;;;4892332;29;20059;-89
2022/01/11 08:00:00;;;;;;;79.67;30.07;;;-1.30;99.90;;;;;;4894752;29;20603;-89
2022/01/11 08:02:31;;;;;;;83.43;31.60;;;-1.60;99.90;;;;;;4894872;29;20040;-89
2022/01/11 08:04:56;;;;;;;73.73;28.87;;;-1.70;99.90;;;;;;4894412;29;20056;-89
2022/01/11 08:07:25;;;;;;;78.57;30.07;;;-0.40;99.90;;;;;;4892577;29;20047;-89
2022/01/11 08:09:59;;;;;;;74.83;29.67;;;-1.60;99.90;;;;;;4893949;29;20048;-88
2022/01/11 08:12:28;;;;;;;75.83;30.10;;;-1.70;99.90;;;;;;4896517;29;20048;-90
2022/01/11 08:15:03;;;;;;;68.97;29.17;;;-1.60;99.90;;;;;;4897439;29;20059;-88
2022/01/11 08:17:38;;;;;;;72.83;29.60;;;-1.50;99.90;;;;;;4895707;29;20056;-88
2022/01/11 08:20:08;;;;;;;71.67;30.50;;;-1.50;99.90;;;;;;4896944;29;20148;-89
2022/01/11 08:22:48;;;;;;;71.50;30.47;;;-1.30;99.90;;;;;;4896352;29;20390;-89
2022/01/11 08:25:14;;;;;;;66.53;28.87;;;-1.40;99.90;;;;;;4925004;23;20052;-89
2022/01/11 08:27:46;;;;;;;65.60;27.93;;;0.20;99.90;;;;;;4899757;29;20489;-90
2022/01/11 08:30:18;;;;;;;75.40;30.57;;;-0.20;99.90;;;;;;4896922;29;20041;-89
2022/01/11 08:32:56;;;;;;;76.10;29.17;;;-1.30;99.90;;;;;;4893698;29;20052;-91
2022/01/11 08:35:41;;;;;;;65.07;29.00;;;-1.10;99.90;;;;;;4895433;29;20056;-89
2022/01/11 08:38:06;;;;;;;;;;;-1.20;99.90;;;;;;4896387;29;20450;-86
2022/01/11 08:40:51;;;;;;;66.10;28.63;;;-1.20;99.90;;;;;;4912874;29;19928;-94
2022/01/11 08:43:16;;;;;;;;;;;-1.10;99.90;;;;;;4897739;29;20187;-86
2022/01/11 08:45:57;;;;;;;63.90;26.63;;;-1.20;99.90;;;;;;4897071;29;20344;-89
2022/01/11 08:48:23;;;;;;;67.90;27.53;;;-1.10;99.90;;;;;;4895694;29;20048;-88
2022/01/11 08:50:53;;;;;;;58.63;26.53;;;-1.10;99.90;;;;;;4895997;29;20059;-87
2022/01/11 08:53:22;;;;;;;62.93;26.50;;;-1.00;99.90;;;;;;4897175;29;20481;-87
2022/01/11 08:55:49;;;;;;;59.50;27.10;;;-0.90;99.90;;;;;;4900244;29;20051;-87
2022/01/11 08:58:15;;;;;;;53.23;25.67;;;-0.70;99.90;;;;;;4898554;29;20143;-88
2022/01/11 09:00:41;;;;;;;63.40;28.03;;;-0.20;99.90;;;;;;4899615;29;20089;-87
2022/01/11 09:03:16;;;;;;;59.53;26.70;;;-0.90;99.90;;;;;;4898521;29;20048;-87
2022/01/11 09:05:42;;;;;;;56.77;26.37;;;-0.90;99.90;;;;;;4898949;29;20460;-87
2022/01/11 09:08:09;;;;;;;51.13;24.93;;;-0.70;99.90;;;;;;4900395;29;20048;-88
2022/01/11 09:10:35;;;;;;;52.47;24.90;;;-0.70;99.90;;;;;;4899360;29;20057;-87
2022/01/11 09:13:03;;;;;;;54.07;25.57;;;-0.60;99.90;;;;;;4898651;29;20037;-88
2022/01/11 09:15:29;;;;;;;53.17;26.17;;;-0.50;99.90;;;;;;4899227;29;20049;-94
2022/01/11 09:17:55;;;;;;;54.10;25.23;;;1.00;99.90;;;;;;4921384;23;20203;-87
2022/01/11 09:20:20;;;;;;;51.80;25.87;;;-0.60;99.90;;;;;;4898544;29;20513;-87
2022/01/11 09:22:46;;;;;;;53.87;24.50;;;-0.20;99.90;;;;;;4899504;29;20056;-87
2022/01/11 09:25:13;;;;;;;54.53;26.23;;;-0.40;99.90;;;;;;4899164;29;20048;-87
2022/01/11 09:27:41;;;;;;;54.83;26.43;;;-1.50;99.90;;;;;;4898465;29;20052;-88
2022/01/11 09:30:10;;;;;;;52.13;25.50;;;-0.30;99.90;;;;;;4899271;29;20104;-88
2022/01/11 09:32:37;;;;;;;49.57;24.03;;;-0.30;99.90;;;;;;4898767;29;20068;-90
2022/01/11 09:35:05;;;;;;;47.03;23.50;;;-0.30;99.90;;;;;;4903914;29;20374;-88
2022/01/11 09:37:31;;;;;;;43.80;23.07;;;-0.20;99.90;;;;;;4899742;29;20057;-89
2022/01/11 09:39:57;;;;;;;46.23;21.97;;;-0.20;99.90;;;;;;4898882;29;20056;-88
2022/01/11 09:42:24;;;;;;;46.23;22.77;;;-0.10;99.90;;;;;;4898364;29;20052;-88
2022/01/11 09:44:50;;;;;;;44.97;23.20;;;0.00;99.90;;;;;;4899200;29;20044;-88
2022/01/11 09:47:16;;;;;;;43.27;22.40;;;0.10;99.90;;;;;;4897830;29;20056;-89
2022/01/11 09:49:43;;;;;;;47.30;23.30;;;0.30;99.90;;;;;;4899218;29;20069;-88
2022/01/11 09:52:11;;;;;;;47.17;22.53;;;0.00;99.90;;;;;;4898774;29;20051;-90
2022/01/11 09:54:38;;;;;;;43.00;21.30;;;1.20;99.90;;;;;;4898535;29;20488;-91
2022/01/11 09:57:04;;;;;;;40.70;21.70;;;0.20;99.90;;;;;;4898907;29;20048;-91
2022/01/11 09:59:30;;;;;;;42.33;22.03;;;0.10;99.90;;;;;;4899000;29;20504;-90
2022/01/11 10:01:57;;;;;;;44.27;21.13;;;0.10;99.90;;;;;;4898614;29;20408;-90
2022/01/11 10:04:29;;;;;;;41.47;21.60;;;0.10;99.90;;;;;;4898449;29;20108;-91
2022/01/11 10:07:00;;;;;;;40.40;19.25;;;0.20;99.90;;;;;;4898792;29;20563;-90
2022/01/11 10:09:29;;;;;;;39.83;19.50;;;0.20;99.90;;;;;;4897653;29;20442;-90
2022/01/11 10:11:57;;;;;;;42.80;21.43;;;0.20;99.90;;;;;;4899471;29;20144;-90
2022/01/11 10:14:34;;;;;;;37.03;19.40;;;0.20;99.90;;;;;;4890141;29;20041;-91
2022/01/11 10:17:30;;;;;;;41.80;21.10;;;0.20;99.90;;;;;;4890375;29;20064;-91
2022/01/11 10:20:20;;;;;;;39.10;18.83;;;0.30;99.90;;;;;;4892527;29;20053;-92
2022/01/11 10:23:01;;;;;;;39.47;20.77;;;0.30;99.90;;;;;;4922245;29;20050;-93
2022/01/11 10:25:40;;;;;;;39.85;20.63;;;0.30;99.90;;;;;;4906868;29;20048;-91
2022/01/11 10:28:06;;;;;;;41.57;19.97;;;0.30;99.90;;;;;;4899745;29;20139;-91
2022/01/11 10:30:47;;;;;;;41.57;20.87;;;0.20;99.90;;;;;;4899601;29;20080;-91
2022/01/11 10:33:16;;;;;;;37.33;19.63;;;0.80;99.90;;;;;;4900017;29;20051;-95
2022/01/11 10:35:46;;;;;;;41.30;20.33;;;0.40;99.90;;;;;;4899058;29;20048;-93
2022/01/11 10:38:35;;;;;;;41.40;21.03;;;0.30;99.90;;;;;;4898933;29;20052;-92
2022/01/11 10:41:07;;;;;;;38.77;19.53;;;0.60;99.90;;;;;;4902524;29;20040;-91
2022/01/11 10:43:43;;;;;;;39.00;20.10;;;0.20;99.90;;;;;;4908163;29;20055;-89
2022/01/11 10:46:09;;;;;;;38.53;20.10;;;0.20;99.90;;;;;;4898459;29;20041;-89
2022/01/11 10:48:55;;;;;;;39.57;19.73;;;0.20;99.90;;;;;;4897201;29;20426;-91
2022/01/11 10:51:21;;;;;;;36.90;19.30;;;0.20;99.90;;;;;;4896573;29;20052;-91
2022/01/11 10:53:59;;;;;;;42.07;20.10;;;0.20;99.90;;;;;;4897671;29;20104;-90
2022/01/11 10:56:54;;;;;;;41.47;20.60;;;0.20;99.90;;;;;;4897874;29;20519;-92
2022/01/11 10:59:31;;;;;;;38.33;18.67;;;0.60;99.90;;;;;;4896660;29;20045;-94
2022/01/11 11:02:26;;;;;;;41.37;20.47;;;0.20;99.90;;;;;;4898120;29;20104;-89
2022/01/11 11:05:00;;;;;;;41.07;19.67;;;0.30;99.90;;;;;;4896992;29;20357;-90
2022/01/11 11:07:27;;;;;;;;;;;1.30;99.90;;;;;;4897979;29;20052;-89
2022/01/11 11:09:59;;;;;;;36.50;18.77;;;0.20;99.90;;;;;;4913142;29;19934;-88
2022/01/11 11:12:40;;;;;;;37.33;18.97;;;0.50;99.90;;;;;;4896707;29;20048;-89
2022/01/11 11:15:16;;;;;;;41.53;19.23;;;0.60;99.90;;;;;;4898164;29;20049;-90
2022/01/11 11:17:57;;;;;;;37.80;18.53;;;0.20;99.90;;;;;;4896875;29;20497;-90
2022/01/11 11:21:32;;;;;;;40.73;18.37;;;0.40;99.90;;;;;;4896321;29;20678;-90
2022/01/11 11:28:33;;;;;;;36.37;18.17;;;0.10;99.90;;;;;;4896416;29;20060;-91
2022/01/11 11:30:59;;;;;;;40.53;18.27;;;1.30;99.90;;;;;;4903519;23;20498;-91
2022/01/11 11:33:38;;;;;;;36.70;17.57;;;0.60;99.90;;;;;;4897034;29;20461;-91
2022/01/11 11:36:05;;;;;;;33.17;16.67;;;0.40;99.90;;;;;;4899057;29;20048;-92
2022/01/11 11:38:53;;;;;;;36.07;16.80;;;0.50;99.90;;;;;;4897667;29;20055;-95
2022/01/11 11:41:41;;;;;;;35.27;17.60;;;1.00;99.90;;;;;;4897974;29;20044;-95
2022/01/11 11:44:25;;;;;;;35.43;17.50;;;0.60;99.90;;;;;;4898748;29;20053;-96
2022/01/11 11:47:02;;;;;;;33.53;16.15;;;1.60;99.90;;;;;;4900251;29;20102;-95
2022/01/11 11:49:48;;;;;;;33.97;16.53;;;2.20;99.90;;;;;;4903602;29;20039;-94
2022/01/11 11:52:50;;;;;;;34.33;16.97;;;1.30;99.90;;;;;;4899351;29;20051;-92
2022/01/11 11:55:23;;;;;;;31.63;14.63;;;1.50;99.90;;;;;;4892214;29;20045;-92
2022/01/11 11:58:19;;;;;;;26.70;12.40;;;1.20;99.90;;;;;;4896444;29;20052;-90
2022/01/11 12:00:57;;;;;;;28.37;12.87;;;1.90;99.90;;;;;;4885847;29;20041;-90
2022/01/11 12:03:43;;;;;;;29.83;13.50;;;2.20;99.90;;;;;;4884887;29;20180;-91
2022/01/11 12:06:28;;;;;;;33.70;14.00;;;1.60;99.90;;;;;;4894269;29;20041;-91
2022/01/11 12:09:32;;;;;;;29.73;13.23;;;2.10;99.90;;;;;;4890720;29;20049;-89
2022/01/11 12:12:09;;;;;;;31.20;13.23;;;3.00;99.90;;;;;;4889147;29;20057;-91
2022/01/11 12:14:39;;;;;;;28.23;13.10;;;2.10;99.90;;;;;;4896687;23;20492;-90
2022/01/11 12:17:16;;;;;;;29.03;12.70;;;2.40;99.90;;;;;;4890386;29;20044;-90
2022/01/11 12:19:44;;;;;;;26.10;12.03;;;2.40;99.90;;;;;;4890761;29;20202;-90
2022/01/11 12:22:10;;;;;;;27.27;12.80;;;2.10;99.90;;;;;;4892157;29;20048;-90
2022/01/11 12:24:56;;;;;;;28.77;12.73;;;1.40;99.90;;;;;;4890424;29;20067;-91
2022/01/11 12:28:13;;;;;;;26.60;12.53;;;2.00;99.90;;;;;;4891181;29;20049;-91
2022/01/11 12:30:48;;;;;;;31.50;13.27;;;2.60;99.90;;;;;;4893848;29;20523;-91
2022/01/11 12:33:28;;;;;;;29.03;12.90;;;1.90;99.90;;;;;;4894951;29;20566;-91
2022/01/11 12:35:59;;;;;;;26.90;12.33;;;2.40;99.90;;;;;;4919034;29;20054;-92
2022/01/11 12:38:37;;;;;;;25.53;12.13;;;2.10;99.90;;;;;;4892141;29;20184;-91
2022/01/11 12:41:29;;;;;;;28.37;11.93;;;2.00;99.90;;;;;;4920447;23;20528;-93
2022/01/11 12:45:35;;;;;;;29.60;12.87;;;2.20;99.90;;;;;;4903639;29;20063;-90
2022/01/11 12:51:09;;;;;;;27.70;12.00;;;2.20;99.90;;;;;;4845950;29;20072;-92
2022/01/11 12:53:47;;;;;;;29.13;12.80;;;1.70;99.90;;;;;;4847723;29;20093;-93
2022/01/11 12:56:25;;;;;;;28.23;12.27;;;2.40;99.90;;;;;;4952505;23;20163;-93
2022/01/11 12:59:04;;;;;;;27.43;13.03;;;3.20;99.90;;;;;;4912861;29;20064;-92
2022/01/11 13:01:29;;;;;;;30.90;12.90;;;0.50;99.90;;;;;;4905680;29;20191;-95